Alexandria, Alabama
Current Conditions -  °F | °C
As of 8:53 PM on Saturday 20 Dec 2014 (Local Time) from KANB Reporting Station
Broken Clouds Broken Clouds  
Wind Chill: 46°   Ceiling: 3900
Heat Index: 46°   Visibility: 8mi
Dew Point: 43°   Wind: 0mph
Humidity: 89%   Direction: NA
Pressure: 30.21"   Gusts: NA
Location:  33.77°N, 85.89°W
Report Text: KANB 210253Z AUTO 00000KT 8SM BKN039 08/06 A3021 RMK AO2 SLP235 T00780061 51002
Loading
Personal Weather Stations






























Interactive Weather Map New forecast layout! Learn more

10-Day Weather Forecast

Advertisements
Track Severe Weather on mobile